Time;durP1;ratioP1;P1;durP2;ratioP2;P2;SDS_P1;SDS_P2;PMS_P1;PMS_P2;Temp;Humidity;BMP_temperature;BMP_pressure;BME280_temperature;BME280_humidity;BME280_pressure;Samples;Min_cycle;Max_cycle;Signal;HPM_P1;HPM_P2
2022/06/07 00:01:17;;;;;;;6.53;4.97;;;;;;;14.87;93.69;101423.13;5021600;28;20113;-81
2022/06/07 00:03:42;;;;;;;10.43;5.97;;;;;;;14.87;93.76;101415.84;5025044;28;20028;-81
2022/06/07 00:06:08;;;;;;;8.05;6.20;;;;;;;14.90;93.62;101409.97;5027209;28;20029;-81
2022/06/07 00:08:34;;;;;;;7.80;5.05;;;;;;;14.88;93.23;101406.69;5028328;28;20108;-81
2022/06/07 00:10:59;;;;;;;8.85;6.68;;;;;;;14.87;92.95;101415.84;5027563;28;20026;-81
2022/06/07 00:13:25;;;;;;;8.57;6.68;;;;;;;14.78;93.13;101412.84;5021387;28;20091;-80
2022/06/07 00:15:50;;;;;;;11.02;7.28;;;;;;;14.77;93.26;101399.63;5023062;28;20036;-81
2022/06/07 00:18:16;;;;;;;8.88;6.60;;;;;;;14.74;93.43;101406.34;5020426;28;21700;-81
2022/06/07 00:20:46;;;;;;;9.93;6.45;;;;;;;14.68;93.73;101412.75;5020451;28;20036;-81
2022/06/07 00:23:14;;;;;;;7.78;5.85;;;;;;;14.64;94.00;101408.16;5019090;28;20021;-81
2022/06/07 00:25:41;;;;;;;7.50;6.18;;;;;;;14.66;94.49;101412.22;5018360;28;20033;-81
2022/06/07 00:28:08;;;;;;;9.65;6.63;;;;;;;14.68;93.90;101406.56;5018859;28;20038;-81
2022/06/07 00:30:34;;;;;;;9.98;7.22;;;;;;;14.67;93.81;101413.84;5020093;28;20041;-81
2022/06/07 00:33:00;;;;;;;10.88;7.05;;;;;;;14.63;93.82;101411.91;5020765;28;20032;-82
2022/06/07 00:35:26;;;;;;;10.65;7.45;;;;;;;14.61;93.84;101412.19;5020284;28;20025;-81
2022/06/07 00:37:51;;;;;;;12.32;8.15;;;;;;;14.57;93.89;101407.56;5019519;28;20521;-81
2022/06/07 00:40:17;;;;;;;12.23;7.40;;;;;;;14.58;93.88;101418.09;5022993;28;21081;-81
2022/06/07 00:42:43;;;;;;;11.00;7.53;;;;;;;14.59;93.77;101414.31;5022661;28;20044;-81
2022/06/07 00:45:14;;;;;;;12.57;8.25;;;;;;;14.56;93.76;101417.53;5025636;28;20044;-81
2022/06/07 00:47:39;;;;;;;12.38;8.15;;;;;;;14.55;93.52;101407.03;5022153;28;20082;-81
2022/06/07 00:50:13;;;;;;;10.32;7.55;;;;;;;14.50;93.25;101411.28;5021991;28;20482;-81
2022/06/07 00:52:38;;;;;;;11.68;7.50;;;;;;;14.44;93.07;101406.94;5021233;28;20087;-81
2022/06/07 00:55:06;;;;;;;9.85;7.13;;;;;;;14.42;93.39;101413.63;5020237;28;20486;-81
2022/06/07 00:57:33;;;;;;;11.30;7.68;;;;;;;14.39;93.42;101414.13;5021136;28;20094;-81
2022/06/07 00:59:59;;;;;;;9.02;6.93;;;;;;;14.39;92.92;101409.56;5024187;28;20021;-81
2022/06/07 01:02:25;;;;;;;10.80;7.50;;;;;;;14.36;92.85;101412.78;5023758;28;20055;-81
2022/06/07 01:04:50;;;;;;;9.85;7.63;;;;;;;14.37;92.84;101408.19;5022464;28;20080;-81
2022/06/07 01:12:47;;;;;;;7.88;6.40;;;;;;;14.35;91.41;101407.59;5019966;28;20719;-81
2022/06/07 01:15:12;;;;;;;7.85;6.60;;;;;;;14.31;91.31;101406.50;5023908;28;20029;-81
2022/06/07 01:17:38;;;;;;;8.00;6.18;;;;;;;14.29;91.80;101404.06;5021580;28;20017;-80
2022/06/07 01:20:05;;;;;;;11.82;7.18;;;;;;;14.31;91.97;101401.13;5021129;28;20021;-82
2022/06/07 01:22:30;;;;;;;9.82;7.43;;;;;;;14.31;93.07;101396.53;5023770;28;20025;-81
2022/06/07 01:24:56;;;;;;;21.20;10.40;;;;;;;14.37;94.32;101397.41;5017021;28;20026;-81
2022/06/07 01:27:22;;;;;;;16.48;10.32;;;;;;;14.43;95.59;101391.81;5021291;28;20026;-80
2022/06/07 01:29:47;;;;;;;16.45;11.27;;;;;;;14.49;96.08;101393.47;5022284;28;20407;-81
2022/06/07 01:32:13;;;;;;;17.02;10.73;;;;;;;14.52;96.59;101395.66;5019168;28;20029;-81
2022/06/07 01:34:42;;;;;;;17.17;10.10;;;;;;;14.59;96.47;101384.66;5018104;28;20021;-80
2022/06/07 01:37:10;;;;;;;13.50;9.90;;;;;;;14.64;96.95;101383.88;5017644;28;20030;-80
2022/06/07 01:42:21;;;;;;;19.35;9.63;;;;;;;14.61;97.58;101393.31;5020442;28;20116;-81
2022/06/07 01:44:48;;;;;;;22.52;10.02;;;;;;;14.61;97.36;101384.41;5020165;28;20025;-81
2022/06/07 01:47:20;;;;;;;14.82;9.98;;;;;;;14.57;97.69;101383.28;5020212;28;20116;-81
2022/06/07 01:49:46;;;;;;;15.73;10.35;;;;;;;14.52;97.98;101376.78;5019537;28;20041;-81
2022/06/07 01:52:14;;;;;;;13.80;9.30;;;;;;;14.45;99.56;101386.16;5015719;28;20053;-81
2022/06/07 01:54:40;;;;;;;13.75;8.95;;;;;;;14.44;99.69;101379.97;5016242;28;20457;-81
2022/06/07 01:57:07;;;;;;;11.23;9.00;;;;;;;14.47;99.01;101374.06;5021930;28;20053;-80
2022/06/07 01:59:34;;;;;;;55.83;11.38;;;;;;;14.46;98.37;101375.13;5023583;28;20021;-81
2022/06/07 02:02:00;;;;;;;24.77;10.30;;;;;;;14.42;97.81;101370.47;5019931;28;20072;-80
2022/06/07 02:04:26;;;;;;;13.07;8.95;;;;;;;14.41;97.46;101371.56;5020899;28;20029;-81
2022/06/07 02:06:51;;;;;;;18.95;9.65;;;;;;;14.35;96.46;101375.25;5018298;28;20034;-81
2022/06/07 02:09:17;;;;;;;18.40;10.07;;;;;;;14.29;96.54;101376.31;5019268;28;20037;-81
2022/06/07 02:11:43;;;;;;;19.05;10.57;;;;;;;14.20;96.77;101370.59;5019750;28;20030;-81
2022/06/07 02:14:09;;;;;;;16.83;10.52;;;;;;;14.18;96.99;101376.22;5021096;28;20579;-81
2022/06/07 02:16:36;;;;;;;17.83;9.20;;;;;;;14.18;97.14;101376.22;5026214;28;20028;-81
2022/06/07 02:19:02;;;;;;;33.28;9.32;;;;;;;14.15;97.30;101374.03;5022751;28;20029;-81
2022/06/07 02:21:28;;;;;;;16.63;8.35;;;;;;;14.04;96.48;101372.31;5026175;28;20052;-81
2022/06/07 02:23:54;;;;;;;15.52;8.25;;;;;;;14.01;96.46;101375.53;5022402;28;20610;-81
2022/06/07 02:26:30;;;;;;;18.27;7.85;;;;;;;13.88;96.15;101373.25;5026605;28;20029;-81
2022/06/07 02:28:59;;;;;;;21.80;7.40;;;;;;;13.89;96.36;101377.56;5020856;28;20068;-81
2022/06/07 02:31:27;;;;;;;10.00;7.25;;;;;;;13.85;95.93;101376.47;5018579;28;20503;-81
2022/06/07 02:33:55;;;;;;;13.88;8.07;;;;;;;13.82;96.25;101374.25;5024118;28;20025;-81
2022/06/07 02:36:21;;;;;;;9.38;6.82;;;;;;;13.76;96.12;101372.56;5020446;28;20058;-81
2022/06/07 02:38:47;;;;;;;13.07;7.72;;;;;;;13.75;96.17;101370.94;5025572;28;20550;-81
2022/06/07 02:41:19;;;;;;;10.40;6.78;;;;;;;13.75;96.17;101371.78;5029927;28;20026;-81
2022/06/07 02:43:45;;;;;;;13.20;6.63;;;;;;;13.77;96.17;101368.81;5021983;28;20022;-81
2022/06/07 02:46:11;;;;;;;10.82;7.10;;;;;;;13.78;96.08;101365.88;5029617;28;20029;-81
2022/06/07 02:48:37;;;;;;;12.55;7.82;;;;;;;13.78;95.99;101362.38;5024390;28;20057;-81
2022/06/07 02:51:03;;;;;;;9.10;7.10;;;;;;;13.78;96.01;101363.19;5025770;28;20033;-82
2022/06/07 02:53:29;;;;;;;18.75;7.78;;;;;;;13.77;96.01;101366.94;5025914;28;20436;-82
2022/06/07 02:55:54;;;;;;;12.50;8.38;;;;;;;13.72;95.98;101361.50;5032341;28;20052;-82
2022/06/07 02:58:21;;;;;;;17.27;6.97;;;;;;;13.68;96.53;101360.41;5026162;28;20568;-81
2022/06/07 03:00:46;;;;;;;16.33;7.47;;;;;;;13.69;96.98;101355.81;5025653;28;20026;-82
2022/06/07 03:03:12;;;;;;;7.93;6.38;;;;;;;13.71;96.71;101346.41;5023314;28;20052;-82
2022/06/07 03:05:38;;;;;;;7.47;6.55;;;;;;;13.75;96.26;101346.72;5029837;28;20029;-82
2022/06/07 03:08:03;;;;;;;8.27;6.53;;;;;;;13.85;95.74;101350.34;5030134;28;20057;-81
2022/06/07 03:10:29;;;;;;;17.00;7.18;;;;;;;13.82;94.91;101347.31;5039951;28;20121;-82
2022/06/07 03:12:55;;;;;;;8.43;6.70;;;;;;;13.79;95.26;101345.13;5032060;28;20658;-81
2022/06/07 03:15:21;;;;;;;16.10;11.15;;;;;;;13.73;95.89;101343.47;5030554;28;20025;-81
2022/06/07 03:17:46;;;;;;;7.13;5.75;;;;;;;13.71;95.30;101348.31;5028296;28;20128;-81
2022/06/07 03:20:13;;;;;;;9.73;4.80;;;;;;;13.67;94.53;101358.78;5028470;28;20494;-81
2022/06/07 03:22:38;;;;;;;8.10;6.65;;;;;;;13.61;95.02;101365.16;5028565;28;20495;-81
2022/06/07 03:25:07;;;;;;;7.68;5.95;;;;;;;13.57;95.99;101364.03;5029325;28;20043;-81
2022/06/07 03:27:37;;;;;;;7.50;6.10;;;;;;;13.55;96.51;101350.03;5022495;28;20033;-81
2022/06/07 03:30:06;;;;;;;7.07;6.15;;;;;;;13.55;96.78;101360.78;5028273;28;20109;-81
2022/06/07 03:32:32;;;;;;;7.40;5.55;;;;;;;13.62;97.09;101353.31;5023977;28;20029;-81
2022/06/07 03:34:58;;;;;;;7.28;5.93;;;;;;;13.68;96.86;101359.59;5025354;28;20028;-81
2022/06/07 03:37:23;;;;;;;7.75;6.90;;;;;;;13.77;96.30;101355.34;5026702;28;21498;-81
2022/06/07 03:39:50;;;;;;;5.35;4.65;;;;;;;13.83;95.65;101362.44;5025035;28;20060;-81
2022/06/07 03:42:17;;;;;;;5.40;4.22;;;;;;;13.81;94.36;101356.47;5026987;28;20083;-81
2022/06/07 03:44:45;;;;;;;3.97;3.67;;;;;;;13.70;93.67;101362.84;5029577;28;20018;-81
2022/06/07 03:47:10;;;;;;;4.07;3.78;;;;;;;13.64;93.54;101364.63;5025751;28;20105;-81
2022/06/07 03:49:36;;;;;;;5.68;5.18;;;;;;;13.57;94.13;101359.47;5024272;28;20105;-82
2022/06/07 03:52:02;;;;;;;12.82;7.88;;;;;;;13.62;95.20;101358.69;5023903;28;20026;-81
2022/06/07 03:54:28;;;;;;;9.73;7.65;;;;;;;13.69;95.61;101350.44;5023022;28;20033;-81
2022/06/07 03:56:53;;;;;;;10.05;7.93;;;;;;;13.70;96.02;101352.88;5024958;28;20427;-81
2022/06/07 03:59:19;;;;;;;9.05;7.95;;;;;;;13.70;96.58;101346.69;5025323;28;20022;-81
2022/06/07 04:01:44;;;;;;;10.88;9.02;;;;;;;13.77;97.04;101336.50;5026743;28;20037;-81
2022/06/07 04:04:10;;;;;;;13.57;9.98;;;;;;;13.81;97.20;101348.38;5032289;28;20022;-81
2022/06/07 04:09:30;;;;;;;7.97;6.70;;;;;;;13.88;95.93;101344.44;5028989;28;20101;-81
2022/06/07 04:11:55;;;;;;;9.20;6.97;;;;;;;13.95;95.96;101343.41;5031276;28;20036;-81
2022/06/07 04:14:21;;;;;;;9.65;7.57;;;;;;;13.99;96.16;101344.50;5028542;28;20029;-82
2022/06/07 04:16:46;;;;;;;11.13;8.93;;;;;;;14.04;96.72;101353.47;5029714;28;20041;-82
2022/06/07 04:19:12;;;;;;;11.73;9.65;;;;;;;14.10;97.94;101359.72;5031251;28;20021;-82
2022/06/07 04:21:38;;;;;;;15.05;10.85;;;;;;;14.19;97.99;101352.78;5028543;28;20604;-82
2022/06/07 04:24:03;;;;;;;13.90;11.20;;;;;;;14.27;98.55;101346.09;5035003;28;20021;-81
2022/06/07 04:26:32;;;;;;;14.15;11.43;;;;;;;14.31;99.04;101355.28;5038515;28;20093;-81
2022/06/07 04:28:58;;;;;;;14.65;11.98;;;;;;;14.33;99.39;101361.22;5031073;28;20037;-81
2022/06/07 04:31:26;;;;;;;15.00;11.48;;;;;;;14.42;99.25;101354.31;5029312;28;20391;-82
2022/06/07 04:33:58;;;;;;;15.40;11.70;;;;;;;14.50;98.94;101359.22;5025962;28;20026;-82
2022/06/07 04:36:26;;;;;;;15.05;12.43;;;;;;;14.52;98.51;101371.38;5019431;28;20025;-82
2022/06/07 04:38:53;;;;;;;17.42;12.13;;;;;;;14.55;99.39;101359.28;5024209;28;20463;-82
2022/06/07 04:41:21;;;;;;;15.77;12.45;;;;;;;14.59;100.00;101371.19;5025294;28;20411;-81
2022/06/07 04:43:47;;;;;;;16.10;12.13;;;;;;;14.61;100.00;101357.44;5023483;28;20028;-82
2022/06/07 04:46:14;;;;;;;14.65;10.95;;;;;;;14.66;100.00;101349.38;5019987;28;20548;-82
2022/06/07 04:48:41;;;;;;;14.35;10.98;;;;;;;14.76;100.00;101350.25;5022167;28;20086;-81
2022/06/07 04:51:10;;;;;;;12.90;11.00;;;;;;;14.88;100.00;101354.59;5022837;28;20026;-82
2022/06/07 04:53:36;;;;;;;15.85;11.55;;;;;;;14.98;100.00;101342.00;5024881;28;20021;-82
2022/06/07 04:56:13;;;;;;;15.02;10.25;;;;;;;15.11;100.00;101346.09;5026737;28;20041;-82
2022/06/07 04:58:39;;;;;;;14.15;9.88;;;;;;;15.21;100.00;101343.44;5016807;28;20026;-83
2022/06/07 05:01:14;;;;;;;12.90;9.73;;;;;;;15.30;99.76;101341.88;5023836;28;20022;-83
2022/06/07 05:03:40;;;;;;;;;;;;;;;15.35;99.67;101346.47;5022114;28;20684;-83
2022/06/07 05:06:20;;;;;;;14.50;10.27;;;;;;;15.46;99.01;101347.31;5024724;28;20008;-82
2022/06/07 05:08:46;;;;;;;14.80;9.52;;;;;;;15.54;98.84;101344.88;5021322;28;20025;-82
2022/06/07 05:11:11;;;;;;;13.75;9.90;;;;;;;15.62;98.82;101344.41;5023674;28;20021;-81
2022/06/07 05:13:37;;;;;;;13.07;9.55;;;;;;;15.67;98.45;101339.00;5022763;28;20037;-82
2022/06/07 05:16:04;;;;;;;12.75;9.80;;;;;;;15.71;97.61;101337.41;5025150;28;20475;-82
2022/06/07 05:18:30;;;;;;;15.63;9.70;;;;;;;15.77;97.58;101343.59;5016811;28;20022;-82
2022/06/07 05:20:55;;;;;;;11.98;8.95;;;;;;;15.87;97.30;101342.81;5018372;28;20059;-82
2022/06/07 05:23:21;;;;;;;12.52;9.35;;;;;;;15.98;96.53;101339.88;5020815;28;20091;-82
2022/06/07 05:26:09;;;;;;;11.00;8.25;;;;;;;16.02;95.42;101350.94;5024505;28;20033;-82
2022/06/07 05:28:38;;;;;;;11.02;8.82;;;;;;;16.14;95.33;101356.88;5021246;28;20034;-82
2022/06/07 05:31:03;;;;;;;10.88;8.20;;;;;;;16.21;95.20;101364.75;5025715;28;20033;-82
2022/06/07 05:33:29;;;;;;;12.85;8.52;;;;;;;16.32;95.29;101363.63;5018820;28;20052;-83
2022/06/07 05:35:56;;;;;;;12.25;7.63;;;;;;;16.41;94.39;101362.03;5021670;28;20018;-82
2022/06/07 05:38:22;;;;;;;9.27;7.68;;;;;;;16.45;92.89;101359.59;5023597;28;20044;-82
2022/06/07 05:40:47;;;;;;;9.93;7.93;;;;;;;16.59;92.79;101366.88;5026360;28;20033;-82
2022/06/07 05:43:13;;;;;;;10.18;6.72;;;;;;;16.72;91.79;101360.13;5019775;28;20032;-81
2022/06/07 05:45:39;;;;;;;10.57;7.43;;;;;;;16.86;91.14;101369.25;5021147;28;20034;-82
2022/06/07 05:48:06;;;;;;;8.23;6.55;;;;;;;16.96;90.12;101370.34;5023823;28;20083;-82
2022/06/07 05:50:33;;;;;;;8.98;6.90;;;;;;;17.00;88.79;101377.63;5023314;28;20029;-82
2022/06/07 05:52:58;;;;;;;8.60;7.13;;;;;;;17.07;88.42;101371.94;5023120;28;20021;-82
2022/06/07 05:55:24;;;;;;;9.00;6.55;;;;;;;17.20;88.17;101377.56;5020260;28;20061;-83
2022/06/07 05:57:51;;;;;;;8.35;6.57;;;;;;;17.38;88.25;101380.72;5024391;28;20022;-82
2022/06/07 06:00:18;;;;;;;10.90;7.68;;;;;;;17.44;87.50;101383.16;5022998;28;20112;-82
2022/06/07 06:02:44;;;;;;;11.63;7.82;;;;;;;17.55;86.68;101386.59;5023429;28;20593;-82
2022/06/07 06:05:10;;;;;;;8.73;7.47;;;;;;;17.68;86.42;101386.03;5020266;28;20104;-81
2022/06/07 06:10:19;;;;;;;9.68;7.90;;;;;;;17.81;85.97;101380.00;5020052;28;20109;-79
2022/06/07 06:10:22;;;;;;;7.50;6.45;;;;;;;17.98;85.59;101389.66;5023011;28;20064;-79
2022/06/07 06:12:47;;;;;;;8.63;5.65;;;;;;;18.03;83.46;101390.41;5016364;28;20057;-79
2022/06/07 06:15:13;;;;;;;8.15;5.65;;;;;;;18.14;82.82;101393.88;5018274;28;20060;-79
2022/06/07 06:17:40;;;;;;;7.30;4.50;;;;;;;18.23;81.55;101389.44;5018321;28;20116;-80
2022/06/07 06:20:06;;;;;;;5.53;4.75;;;;;;;18.25;79.66;101384.53;5021369;28;20106;-79
2022/06/07 06:22:34;;;;;;;5.20;4.70;;;;;;;18.25;78.62;101394.59;5020373;28;20021;-79
2022/06/07 06:24:59;;;;;;;5.28;4.75;;;;;;;18.37;78.93;101389.63;5016719;28;20395;-80
2022/06/07 06:27:25;;;;;;;6.57;4.10;;;;;;;18.37;76.35;101393.13;5019716;28;20032;-80
2022/06/07 06:29:51;;;;;;;7.18;3.95;;;;;;;18.36;75.07;101398.84;5022116;28;20055;-79
2022/06/07 06:32:16;;;;;;;6.45;3.42;;;;;;;18.48;74.89;101401.97;5021528;28;20033;-81
2022/06/07 06:34:42;;;;;;;5.05;4.50;;;;;;;18.51;75.42;101395.19;5019438;28;20025;-81
2022/06/07 06:37:08;;;;;;;8.50;4.47;;;;;;;18.54;75.56;101400.06;5021726;28;20116;-81
2022/06/07 06:39:33;;;;;;;7.93;5.00;;;;;;;18.63;76.04;101406.50;5022154;28;20045;-81
2022/06/07 06:41:59;;;;;;;6.57;5.18;;;;;;;18.83;75.83;101410.91;5020823;28;20056;-81
2022/06/07 06:44:24;;;;;;;7.72;4.65;;;;;;;18.91;75.25;101404.88;5019385;28;21717;-82
2022/06/07 06:46:50;;;;;;;7.53;4.65;;;;;;;18.96;75.03;101408.31;5018740;28;20029;-81
2022/06/07 06:49:18;;;;;;;7.00;4.47;;;;;;;19.12;74.53;101400.81;5022173;28;20533;-81
2022/06/07 06:51:45;;;;;;;7.00;4.38;;;;;;;19.13;72.75;101401.63;5021048;28;20104;-81
2022/06/07 06:54:13;;;;;;;6.38;4.60;;;;;;;19.15;72.41;101404.88;5018717;28;20025;-81
2022/06/07 06:56:39;;;;;;;5.88;4.13;;;;;;;19.25;72.06;101408.28;5018357;28;20108;-81
2022/06/07 06:59:04;;;;;;;5.22;3.22;;;;;;;19.41;71.47;101391.81;5017519;28;20103;-81
2022/06/07 07:01:36;;;;;;;6.15;3.38;;;;;;;19.34;67.30;101397.56;5018317;28;20059;-81
2022/06/07 07:04:05;;;;;;;7.88;2.85;;;;;;;19.30;66.04;101404.69;5018899;28;20025;-82
2022/06/07 07:06:31;;;;;;;3.60;2.88;;;;;;;19.24;64.90;101403.94;5014091;28;20025;-82
2022/06/07 07:08:57;;;;;;;5.82;2.80;;;;;;;19.30;65.69;101412.84;5019666;28;20472;-82
2022/06/07 07:11:32;;;;;;;4.93;2.83;;;;;;;19.33;64.85;101407.63;5020916;28;20040;-82
2022/06/07 07:13:59;;;;;;;5.53;3.38;;;;;;;19.34;65.60;101408.44;5021214;28;20029;-82
2022/06/07 07:16:27;;;;;;;4.38;2.72;;;;;;;19.47;65.52;101413.16;5017510;28;22001;-82
2022/06/07 07:18:54;;;;;;;4.43;3.08;;;;;;;19.60;65.79;101417.13;5018680;28;20022;-82
2022/06/07 07:21:35;;;;;;;8.65;3.53;;;;;;;19.62;64.38;101414.91;5017979;28;20057;-82
2022/06/07 07:24:08;;;;;;;4.25;3.13;;;;;;;19.82;64.99;101419.25;5019000;28;20083;-82
2022/06/07 07:26:36;;;;;;;4.05;3.10;;;;;;;19.97;64.82;101421.75;5015476;28;20037;-82
2022/06/07 07:29:03;;;;;;;4.70;2.90;;;;;;;19.98;63.97;101426.09;5019092;28;20055;-81
2022/06/07 07:31:32;;;;;;;5.95;3.05;;;;;;;20.01;63.69;101420.06;5021306;28;21825;-83
2022/06/07 07:33:59;;;;;;;3.17;2.80;;;;;;;20.08;63.14;101417.78;5016929;28;20033;-82
2022/06/07 07:36:25;;;;;;;3.78;2.75;;;;;;;20.18;62.77;101419.53;5022116;28;21880;-81
2022/06/07 07:38:51;;;;;;;3.72;2.67;;;;;;;20.30;61.98;101417.19;5017390;28;20018;-82
2022/06/07 07:41:26;;;;;;;3.00;2.67;;;;;;;20.47;61.32;101409.31;5017765;28;20044;-82
2022/06/07 07:43:53;;;;;;;2.45;2.25;;;;;;;20.66;60.95;101411.97;5020372;28;20487;-82
2022/06/07 07:46:20;;;;;;;4.22;2.47;;;;;;;20.72;60.60;101410.75;5020330;28;20026;-83
2022/06/07 07:48:46;;;;;;;5.78;2.38;;;;;;;20.67;59.66;101401.88;5021574;28;20080;-82
2022/06/07 07:51:19;;;;;;;2.85;2.20;;;;;;;20.70;57.95;101398.56;5021303;28;20616;-82
2022/06/07 07:53:45;;;;;;;2.92;1.90;;;;;;;20.67;57.69;101399.97;5017940;28;20040;-82
2022/06/07 07:56:11;;;;;;;3.28;1.90;;;;;;;20.63;57.63;101404.38;5018336;28;20029;-82
2022/06/07 07:58:37;;;;;;;3.67;2.13;;;;;;;20.78;58.22;101408.75;5019951;28;20028;-82
2022/06/07 08:01:12;;;;;;;3.63;2.45;;;;;;;20.86;59.05;101409.97;5020792;28;20036;-82
2022/06/07 08:03:39;;;;;;;2.35;2.15;;;;;;;20.89;58.73;101402.00;5018275;28;20045;-82
2022/06/07 08:06:09;;;;;;;2.83;2.40;;;;;;;20.98;59.33;101407.56;5020693;28;20040;-82
2022/06/07 08:08:35;;;;;;;3.97;2.28;;;;;;;21.07;58.69;101413.94;5026608;28;20618;-82
2022/06/07 08:11:01;;;;;;;4.72;2.35;;;;;;;21.05;58.59;101416.97;5032052;28;20034;-82
2022/06/07 08:13:28;;;;;;;2.38;2.17;;;;;;;21.10;58.10;101416.84;5023182;28;20029;-82
2022/06/07 08:15:53;;;;;;;2.50;2.22;;;;;;;21.15;58.01;101421.38;5025399;28;20018;-82
2022/06/07 08:18:19;;;;;;;4.78;2.50;;;;;;;21.23;57.60;101412.53;5026495;28;21079;-82
2022/06/07 08:20:46;;;;;;;4.07;1.60;;;;;;;21.13;56.27;101412.72;5029437;28;20078;-82
2022/06/07 08:23:13;;;;;;;2.88;2.00;;;;;;;21.18;56.49;101409.88;5026141;28;20049;-82
2022/06/07 08:25:38;;;;;;;5.22;2.10;;;;;;;21.38;57.08;101403.25;5027883;28;20503;-82
2022/06/07 08:28:05;;;;;;;2.60;2.13;;;;;;;21.44;57.01;101403.94;5029926;28;20026;-82
2022/06/07 08:30:32;;;;;;;3.45;2.10;;;;;;;21.50;56.61;101408.16;5027583;28;20025;-81
2022/06/07 08:32:58;;;;;;;7.85;1.95;;;;;;;21.56;55.23;101407.78;5022678;28;20033;-82
2022/06/07 08:38:13;;;;;;;3.65;2.00;;;;;;;21.51;55.05;101390.69;5030051;28;20207;-82
2022/06/07 08:40:44;;;;;;;4.10;2.00;;;;;;;21.63;54.06;101394.53;5025214;28;20033;-81
2022/06/07 08:43:19;;;;;;;2.03;1.58;;;;;;;21.59;52.57;101390.00;5023017;28;20419;-82
2022/06/07 08:45:47;;;;;;;2.42;1.88;;;;;;;21.65;53.00;101386.84;5023356;28;20368;-82
2022/06/07 08:48:17;;;;;;;2.25;2.00;;;;;;;21.75;52.03;101387.72;5026185;28;20022;-82
2022/06/07 08:50:48;;;;;;;2.13;1.92;;;;;;;21.66;52.49;101380.25;5027515;28;20545;-82
2022/06/07 08:53:34;;;;;;;6.85;1.90;;;;;;;21.76;51.86;101378.44;5026088;28;20036;-82
2022/06/07 08:56:04;;;;;;;3.55;2.00;;;;;;;21.90;51.89;101368.25;5027063;28;20700;-82
2022/06/07 08:58:36;;;;;;;3.05;1.60;;;;;;;21.85;50.34;101382.84;5020417;28;20275;-82
2022/06/07 09:01:23;;;;;;;1.73;1.33;;;;;;;21.75;47.06;101380.34;5024573;28;20100;-81
2022/06/07 09:04:09;;;;;;;2.45;1.55;;;;;;;21.86;48.87;101376.25;5022333;28;20029;-82
2022/06/07 09:06:38;;;;;;;1.63;1.48;;;;;;;22.03;50.39;101370.13;5026804;28;20044;-82
2022/06/07 09:09:04;;;;;;;1.75;1.65;;;;;;;22.12;50.43;101365.59;5021051;28;20045;-81
2022/06/07 09:14:36;;;;;;;2.75;1.50;;;;;;;22.41;49.48;101364.31;5026949;28;20044;-82
2022/06/07 09:17:05;;;;;;;3.03;1.40;;;;;;;22.36;49.21;101359.78;5026221;28;20032;-82
2022/06/07 09:19:31;;;;;;;3.25;1.70;;;;;;;22.39;49.18;101352.91;5027706;28;20021;-82
2022/06/07 09:22:01;;;;;;;2.13;1.85;;;;;;;22.51;49.58;101370.31;5032224;28;20022;-81
2022/06/07 09:24:53;;;;;;;3.95;1.55;;;;;;;22.66;48.74;101357.38;5022075;28;20037;-82
2022/06/07 09:27:26;;;;;;;1.48;1.38;;;;;;;22.68;47.42;101355.94;5020277;28;20049;-82
2022/06/07 09:29:59;;;;;;;1.52;1.20;;;;;;;22.61;47.27;101356.38;5022067;28;20043;-81
2022/06/07 09:32:27;;;;;;;2.65;1.58;;;;;;;22.53;45.87;101357.16;5025488;28;20449;-81
2022/06/07 09:35:02;;;;;;;3.42;1.90;;;;;;;22.38;46.05;101346.63;5028106;28;20423;-81
2022/06/07 09:37:49;;;;;;;2.42;1.75;;;;;;;22.46;46.74;101339.63;5025201;28;20040;-81
2022/06/07 09:40:35;;;;;;;2.30;1.60;;;;;;;22.43;45.91;101332.84;5024049;28;20022;-81
2022/06/07 09:43:13;;;;;;;3.88;1.63;;;;;;;22.51;46.24;101337.56;5028112;28;20056;-80
2022/06/07 09:45:43;;;;;;;2.15;1.63;;;;;;;22.59;46.29;101327.78;5025136;28;20076;-81
2022/06/07 09:48:55;;;;;;;1.83;1.40;;;;;;;22.64;46.08;101329.59;5024913;28;20687;-80
2022/06/07 09:51:27;;;;;;;1.63;1.40;;;;;;;22.88;45.51;101321.81;5027221;28;20037;-80
2022/06/07 09:54:13;;;;;;;4.90;1.20;;;;;;;22.98;44.64;101312.50;5030059;28;20033;-80
2022/06/07 09:56:44;;;;;;;1.50;1.30;;;;;;;23.04;44.76;101314.78;5031525;28;21086;-80
2022/06/07 09:59:55;;;;;;;2.90;1.60;;;;;;;22.98;44.20;101316.06;5025057;28;20037;-80
2022/06/07 10:02:48;;;;;;;1.92;1.42;;;;;;;23.07;46.84;101300.50;5023777;28;20116;-80
2022/06/07 10:05:39;;;;;;;3.53;1.23;;;;;;;23.29;46.04;101296.00;5027177;28;20104;-81
2022/06/07 10:08:28;;;;;;;1.75;1.33;;;;;;;23.33;43.02;101299.69;5029277;28;20083;-80
2022/06/07 10:11:11;;;;;;;2.92;1.20;;;;;;;23.14;44.05;101298.06;5026555;28;20053;-81
2022/06/07 10:13:48;;;;;;;1.48;1.27;;;;;;;23.31;44.07;101291.03;5022276;28;20037;-81
2022/06/07 10:16:26;;;;;;;2.85;1.63;;;;;;;23.38;44.66;101294.91;5027887;28;20026;-81
2022/06/07 10:19:16;;;;;;;3.10;1.02;;;;;;;23.24;43.68;101296.16;5030906;28;20021;-80
2022/06/07 10:21:54;;;;;;;3.90;1.77;;;;;;;23.34;44.33;101293.09;5026293;28;20029;-80
2022/06/07 10:24:38;;;;;;;4.15;1.40;;;;;;;23.53;43.82;101293.63;5026362;28;20764;-80
2022/06/07 10:27:23;;;;;;;1.40;1.13;;;;;;;23.58;43.86;101284.47;5027038;28;20049;-80
2022/06/07 10:30:13;;;;;;;2.72;1.42;;;;;;;23.57;44.14;101280.94;5027897;28;20035;-81
2022/06/07 10:32:57;;;;;;;1.75;1.10;;;;;;;23.40;42.06;101289.91;5032656;28;20036;-81
2022/06/07 10:35:45;;;;;;;4.20;1.13;;;;;;;23.30;41.44;101283.94;5032515;28;20022;-80
2022/06/07 10:38:29;;;;;;;1.58;1.13;;;;;;;23.42;42.84;101286.84;5027774;28;20030;-81
2022/06/07 10:41:21;;;;;;;3.03;1.25;;;;;;;23.55;42.14;101291.38;5026274;28;20093;-80
2022/06/07 10:43:59;;;;;;;1.52;1.40;;;;;;;23.85;42.02;101295.06;5017891;28;20045;-81
2022/06/07 10:46:28;;;;;;;1.70;1.27;;;;;;;23.98;42.32;101287.81;5023857;28;20074;-81
2022/06/07 10:49:24;;;;;;;1.70;1.30;;;;;;;24.02;42.56;101286.81;5026349;28;20475;-81
2022/06/07 10:52:20;;;;;;;1.77;1.40;;;;;;;23.89;41.35;101278.81;5027574;28;20025;-80
2022/06/07 10:54:58;;;;;;;1.52;1.35;;;;;;;23.69;41.46;101281.06;5036429;28;20026;-80
2022/06/07 10:57:39;;;;;;;1.85;1.20;;;;;;;23.67;41.65;101264.19;5021144;28;20034;-81
2022/06/07 11:00:23;;;;;;;2.00;1.20;;;;;;;23.72;41.74;101255.03;5020679;28;20108;-81
2022/06/07 11:02:59;;;;;;;0.90;0.90;;;;;;;23.81;40.67;101253.88;5018629;28;20075;-80
2022/06/07 11:11:14;;;;;;;3.90;1.08;;;;;;;23.23;41.07;101269.97;5021990;28;20076;-81
2022/06/07 11:14:11;;;;;;;0.88;0.82;;;;;;;23.10;41.01;101264.31;5022013;28;21627;-80
2022/06/07 11:16:44;;;;;;;1.83;1.15;;;;;;;23.10;42.13;101266.25;5020121;28;20546;-80
2022/06/07 11:19:10;;;;;;;2.63;1.20;;;;;;;23.09;41.95;101270.91;5017568;28;20037;-80
2022/06/07 11:21:40;;;;;;;1.25;1.15;;;;;;;23.06;42.52;101257.88;5022272;28;20076;-80
2022/06/07 11:24:07;;;;;;;2.15;1.50;;;;;;;23.07;42.58;101262.22;5017699;28;20057;-80
2022/06/07 11:26:58;;;;;;;1.95;1.05;;;;;;;23.12;42.47;101264.78;5024851;28;20040;-80
2022/06/07 11:29:29;;;;;;;4.47;1.17;;;;;;;23.13;42.62;101260.94;5013493;28;20038;-80
2022/06/07 11:31:56;;;;;;;3.72;1.17;;;;;;;23.31;42.87;101258.22;5020893;28;20414;-80
2022/06/07 11:34:34;;;;;;;1.67;1.20;;;;;;;23.55;44.01;101261.28;5020755;28;20040;-80
2022/06/07 11:37:08;;;;;;;2.78;1.13;;;;;;;23.69;41.33;101274.78;5022073;28;20554;-81
2022/06/07 11:39:40;;;;;;;2.95;1.30;;;;;;;23.71;41.60;101273.38;5021029;28;20029;-80
2022/06/07 11:42:17;;;;;;;1.67;1.25;;;;;;;23.72;42.03;101277.72;5025319;28;20040;-80
2022/06/07 11:44:43;;;;;;;1.77;1.48;;;;;;;23.61;41.67;101264.69;5022479;28;20029;-80
2022/06/07 11:47:12;;;;;;;2.28;1.60;;;;;;;23.75;42.73;101255.16;5022281;28;20569;-80
2022/06/07 11:49:40;;;;;;;4.50;1.23;;;;;;;23.90;42.28;101253.88;5019782;28;20068;-80
2022/06/07 11:52:22;;;;;;;4.10;1.58;;;;;;;24.17;42.75;101246.38;5017428;28;20028;-81
2022/06/07 11:55:14;;;;;;;2.10;1.25;;;;;;;24.41;41.75;101261.09;5019803;28;20030;-81
2022/06/07 11:58:00;;;;;;;1.85;1.23;;;;;;;24.42;41.80;101256.47;5024862;28;20702;-80